Augusta, Ohio
Current Conditions -  °F | °C
As of 1:53 PM on Friday 21 Nov 2014 (Local Time) from KPHD Reporting Station
Clear Clear  
Wind Chill: 19°   Ceiling: Unl
Heat Index: 26°   Visibility: 10mi
Dew Point:   Wind: 6mph
Humidity: 44%   Direction: 300°WNW
Pressure: 30.5"   Gusts: NA
Location:  40.69°N, 81.02°W
Report Text: KPHD 211853Z AUTO 30005KT 10SM CLR M03/M14 A3050 RMK AO2 SLP342 T10331139
Loading
Personal Weather Stations






























Interactive Weather Map New forecast layout! Learn more

10-Day Weather Forecast

Advertisements
Track Severe Weather on mobile